Time;durP1;ratioP1;P1;durP2;ratioP2;P2;SDS_P1;SDS_P2;PMS_P1;PMS_P2;Temp;Humidity;BMP_temperature;BMP_pressure;BME280_temperature;BME280_humidity;BME280_pressure;Samples;Min_cycle;Max_cycle;Signal;HPM_P1;HPM_P2
2022/09/13 00:01:00;;;;;;;1.92;1.58;;;;;;;15.16;100.00;96316.25;4906568;29;20287;-53
2022/09/13 00:03:29;;;;;;;1.55;1.45;;;;;;;15.16;100.00;96316.25;4906296;29;20207;-54
2022/09/13 00:05:55;;;;;;;3.47;1.42;;;;;;;15.14;100.00;96304.94;4905953;29;20287;-54
2022/09/13 00:08:22;;;;;;;4.10;1.70;;;;;;;15.11;100.00;96311.47;4906669;29;20201;-54
2022/09/13 00:10:49;;;;;;;1.97;1.83;;;;;;;15.03;100.00;96305.38;4906349;29;20272;-54
2022/09/13 00:13:16;;;;;;;3.93;1.40;;;;;;;15.02;100.00;96306.41;4905861;29;20232;-55
2022/09/13 00:15:45;;;;;;;2.20;1.53;;;;;;;14.99;100.00;96298.72;4905728;29;20243;-55
2022/09/13 00:18:11;;;;;;;1.63;1.40;;;;;;;14.99;100.00;96304.91;4905430;29;20250;-56
2022/09/13 00:20:40;;;;;;;1.73;1.63;;;;;;;15.00;100.00;96306.56;4905039;29;20230;-54
2022/09/13 00:23:06;;;;;;;1.87;1.50;;;;;;;15.00;100.00;96300.41;4905759;29;20291;-54
2022/09/13 00:25:33;;;;;;;2.17;1.70;;;;;;;15.00;100.00;96303.91;4905548;29;20232;-55
2022/09/13 00:28:00;;;;;;;4.90;1.50;;;;;;;14.94;100.00;96301.97;4905907;29;20623;-55
2022/09/13 00:30:26;;;;;;;2.63;1.40;;;;;;;14.92;100.00;96299.47;4906011;29;20272;-55
2022/09/13 00:32:53;;;;;;;1.50;1.40;;;;;;;14.93;100.00;96303.78;4905641;29;20230;-53
2022/09/13 00:35:20;;;;;;;1.92;1.70;;;;;;;14.90;100.00;96298.00;4905200;29;20347;-55
2022/09/13 00:37:48;;;;;;;2.30;1.63;;;;;;;14.87;100.00;96298.34;4905739;29;20303;-54
2022/09/13 00:40:14;;;;;;;2.93;1.60;;;;;;;14.86;100.00;96299.34;4906654;29;20296;-54
2022/09/13 00:42:41;;;;;;;1.70;1.60;;;;;;;14.87;100.00;96291.19;4907100;29;20296;-54
2022/09/13 00:45:15;;;;;;;2.57;1.53;;;;;;;14.86;100.00;96302.84;4906565;29;20610;-54
2022/09/13 00:47:46;;;;;;;1.75;1.65;;;;;;;14.88;100.00;96303.47;4907536;29;20200;-54
2022/09/13 00:50:18;;;;;;;2.65;2.05;;;;;;;14.89;100.00;96307.81;4907011;29;20291;-55
2022/09/13 00:52:46;;;;;;;1.60;1.50;;;;;;;14.90;100.00;96298.81;4908405;29;20201;-55
2022/09/13 00:55:21;;;;;;;4.97;2.07;;;;;;;14.89;100.00;96306.97;4908913;29;20823;-57
2022/09/13 00:57:48;;;;;;;1.52;1.42;;;;;;;14.88;100.00;96307.97;4907636;29;20204;-55
2022/09/13 01:00:16;;;;;;;2.33;1.50;;;;;;;14.87;100.00;96301.00;4907801;29;20295;-56
2022/09/13 01:02:44;;;;;;;2.70;1.53;;;;;;;14.81;100.00;96307.03;4909695;29;20293;-55
2022/09/13 01:05:11;;;;;;;4.60;1.80;;;;;;;14.81;100.00;96305.19;4906494;29;20831;-55
2022/09/13 01:07:39;;;;;;;1.63;1.53;;;;;;;14.77;100.00;96306.53;4905513;29;20332;-55
2022/09/13 01:10:07;;;;;;;1.58;1.48;;;;;;;14.78;100.00;96308.22;4905708;29;20208;-55
2022/09/13 01:12:39;;;;;;;2.50;1.63;;;;;;;14.77;100.00;96295.09;4905973;29;20204;-55
2022/09/13 01:15:07;;;;;;;3.43;1.77;;;;;;;14.72;100.00;96292.97;4905290;29;20227;-55
2022/09/13 01:17:34;;;;;;;2.90;1.73;;;;;;;14.73;100.00;96305.28;4905405;29;20307;-54
2022/09/13 01:20:01;;;;;;;2.00;1.77;;;;;;;14.70;100.00;96305.59;4905041;29;20224;-56
2022/09/13 01:23:08;;;;;;;3.10;1.77;;;;;;;14.69;100.00;96298.63;4905267;29;20293;-53
2022/09/13 01:26:11;;;;;;;1.73;1.40;;;;;;;14.63;100.00;96304.66;4905224;29;20201;-55
2022/09/13 01:29:12;;;;;;;3.77;1.60;;;;;;;14.59;100.00;96306.03;4906275;29;20204;-55
2022/09/13 01:31:45;;;;;;;3.10;1.43;;;;;;;14.67;100.00;96305.13;4908939;29;20873;-55
2022/09/13 01:34:20;;;;;;;2.93;1.60;;;;;;;14.59;100.00;96308.69;4909438;29;20640;-56
2022/09/13 01:37:01;;;;;;;1.93;1.83;;;;;;;14.56;100.00;96311.69;4908754;29;20385;-55
2022/09/13 01:39:41;;;;;;;3.43;2.00;;;;;;;14.55;100.00;96307.38;4908647;29;20219;-55
2022/09/13 01:42:15;;;;;;;3.63;1.90;;;;;;;14.50;100.00;96312.38;4908187;29;20557;-56
2022/09/13 01:44:56;;;;;;;2.40;1.70;;;;;;;14.48;100.00;96311.75;4908018;29;20235;-54
2022/09/13 01:47:27;;;;;;;2.60;1.60;;;;;;;14.50;100.00;96309.72;4908091;29;20290;-55
2022/09/13 01:50:03;;;;;;;3.23;1.97;;;;;;;14.46;100.00;96308.41;4908411;29;20188;-55
2022/09/13 01:52:35;;;;;;;2.33;1.40;;;;;;;14.40;100.00;96312.63;4909315;29;20207;-55
2022/09/13 01:55:08;;;;;;;1.80;1.60;;;;;;;14.39;100.00;96308.28;4908533;29;20552;-55
2022/09/13 01:57:40;;;;;;;1.80;1.70;;;;;;;14.37;100.00;96309.47;4908777;29;20283;-55
2022/09/13 02:00:09;;;;;;;1.63;1.53;;;;;;;14.32;100.00;96317.09;4908028;29;20247;-55
2022/09/13 02:02:40;;;;;;;2.50;1.77;;;;;;;14.30;100.00;96316.47;4907829;29;20219;-55
2022/09/13 02:05:11;;;;;;;3.03;1.63;;;;;;;14.25;100.00;96322.28;4908863;29;20781;-55
2022/09/13 02:07:41;;;;;;;2.13;1.60;;;;;;;14.27;100.00;96327.47;4908347;29;20207;-56
2022/09/13 02:10:10;;;;;;;1.60;1.50;;;;;;;14.27;100.00;96319.47;4907712;29;20264;-54
2022/09/13 02:12:37;;;;;;;2.03;1.60;;;;;;;14.19;100.00;96316.84;4908186;29;21043;-55
2022/09/13 02:15:08;;;;;;;2.17;1.97;;;;;;;14.17;100.00;96319.66;4908256;29;20313;-55
2022/09/13 02:17:39;;;;;;;1.73;1.63;;;;;;;14.20;100.00;96321.16;4908120;29;20292;-55
2022/09/13 02:20:09;;;;;;;2.07;1.67;;;;;;;14.19;100.00;96316.84;4907466;29;20234;-55
2022/09/13 02:22:39;;;;;;;3.20;1.63;;;;;;;14.21;100.00;96320.16;4908098;29;20216;-55
2022/09/13 02:25:10;;;;;;;2.43;1.87;;;;;;;14.15;100.00;96320.84;4908034;29;20311;-53
2022/09/13 02:27:37;;;;;;;1.97;1.80;;;;;;;14.14;100.00;96327.16;4907807;29;20219;-55
2022/09/13 02:30:07;;;;;;;2.90;1.80;;;;;;;14.11;100.00;96324.84;4907900;29;20280;-55
2022/09/13 02:32:37;;;;;;;2.33;1.87;;;;;;;14.16;100.00;96322.50;4907905;29;20709;-55
2022/09/13 02:35:08;;;;;;;3.57;1.60;;;;;;;14.20;100.00;96329.97;4907401;29;20617;-55
2022/09/13 02:37:36;;;;;;;2.73;2.07;;;;;;;14.16;100.00;96322.50;4907682;29;21247;-55
2022/09/13 02:40:05;;;;;;;3.37;1.83;;;;;;;14.09;100.00;96321.53;4907012;29;20232;-56
2022/09/13 02:42:36;;;;;;;2.13;1.70;;;;;;;14.01;100.00;96318.91;4907332;29;20220;-56
2022/09/13 02:45:04;;;;;;;2.30;1.90;;;;;;;14.00;100.00;96315.41;4907333;29;20205;-55
2022/09/13 02:47:39;;;;;;;3.57;1.90;;;;;;;14.00;100.00;96314.59;4907285;29;20303;-55
2022/09/13 02:50:16;;;;;;;3.53;1.90;;;;;;;13.95;100.00;96313.28;4906685;29;20712;-55
2022/09/13 02:52:48;;;;;;;1.80;1.70;;;;;;;13.93;100.00;96301.16;4907391;29;20203;-56
2022/09/13 02:55:19;;;;;;;2.20;1.70;;;;;;;13.87;100.00;96297.38;4907343;29;20212;-55
2022/09/13 02:57:55;;;;;;;1.80;1.70;;;;;;;13.86;100.00;96290.38;4906779;29;20294;-55
2022/09/13 03:00:22;;;;;;;2.40;1.80;;;;;;;13.88;100.00;96303.53;4906970;29;20223;-55
2022/09/13 03:02:50;;;;;;;1.90;1.77;;;;;;;13.89;100.00;96300.66;4906443;29;20303;-55
2022/09/13 03:05:18;;;;;;;2.10;1.90;;;;;;;13.94;100.00;96302.81;4907169;29;20208;-56
2022/09/13 03:07:44;;;;;;;8.03;2.10;;;;;;;13.92;100.00;96300.31;4907386;29;20714;-55
2022/09/13 03:10:13;;;;;;;1.87;1.70;;;;;;;13.85;100.00;96304.66;4906319;29;20663;-55
2022/09/13 03:13:03;;;;;;;3.20;1.97;;;;;;;13.82;100.00;96302.34;4907128;29;20328;-55
2022/09/13 03:15:44;;;;;;;5.80;1.83;;;;;;;13.77;100.00;96295.91;4907287;29;20301;-56
2022/09/13 03:18:19;;;;;;;3.03;1.60;;;;;;;13.80;100.00;96301.72;4906739;29;20211;-55
2022/09/13 03:20:54;;;;;;;2.43;1.83;;;;;;;13.78;100.00;96298.38;4906700;29;20234;-55
2022/09/13 03:23:35;;;;;;;2.23;1.80;;;;;;;13.75;100.00;96297.88;4906652;29;20231;-55
2022/09/13 03:26:17;;;;;;;1.83;1.70;;;;;;;13.72;100.00;96303.56;4905992;29;20657;-55
2022/09/13 03:28:53;;;;;;;2.63;2.00;;;;;;;13.73;100.00;96295.44;4906653;29;20601;-55
2022/09/13 03:31:23;;;;;;;5.37;1.90;;;;;;;13.74;100.00;96296.25;4906885;29;20192;-54
2022/09/13 03:33:56;;;;;;;1.93;1.60;;;;;;;13.72;100.00;96299.06;4905933;29;20669;-54
2022/09/13 03:36:27;;;;;;;3.27;2.03;;;;;;;13.70;100.00;96301.09;4906314;29;20207;-55
2022/09/13 03:38:58;;;;;;;2.33;2.23;;;;;;;13.69;100.00;96298.59;4906749;29;20226;-55
2022/09/13 03:41:27;;;;;;;3.43;2.00;;;;;;;13.70;100.00;96306.41;4906107;29;20547;-56
2022/09/13 03:43:57;;;;;;;3.47;2.03;;;;;;;13.72;100.00;96314.19;4906055;29;20235;-54
2022/09/13 03:46:29;;;;;;;3.13;2.03;;;;;;;13.73;100.00;96311.38;4906786;29;20690;-56
2022/09/13 03:48:56;;;;;;;3.10;2.30;;;;;;;13.82;100.00;96298.88;4907303;29;20240;-55
2022/09/13 03:51:25;;;;;;;1.93;1.77;;;;;;;13.81;100.00;96308.69;4908016;29;20208;-55
2022/09/13 03:53:56;;;;;;;2.10;2.00;;;;;;;13.77;100.00;96298.56;4907051;29;20734;-55
2022/09/13 03:56:23;;;;;;;2.43;1.80;;;;;;;13.77;100.00;96307.38;4906017;29;20641;-55
2022/09/13 03:58:50;;;;;;;2.33;1.97;;;;;;;13.74;100.00;96307.72;4906478;29;20347;-56
2022/09/13 04:01:19;;;;;;;2.37;1.83;;;;;;;13.77;100.00;96307.38;4905784;29;20235;-55
2022/09/13 04:03:46;;;;;;;2.93;1.73;;;;;;;13.77;100.00;96310.03;4906322;29;20384;-55
2022/09/13 04:06:12;;;;;;;1.83;1.60;;;;;;;13.78;100.00;96303.69;4906257;29;20215;-55
2022/09/13 04:08:40;;;;;;;1.97;1.83;;;;;;;13.76;100.00;96294.25;4906001;29;20546;-55
2022/09/13 04:11:08;;;;;;;2.37;2.10;;;;;;;13.75;100.00;96300.56;4905354;29;20647;-55
2022/09/13 04:13:35;;;;;;;2.23;2.03;;;;;;;13.69;100.00;96304.72;4905697;29;20219;-55
2022/09/13 04:16:02;;;;;;;4.13;2.10;;;;;;;13.67;100.00;96321.84;4905675;29;20218;-55
2022/09/13 04:18:29;;;;;;;2.40;2.00;;;;;;;13.70;100.00;96316.19;4906006;29;20220;-56
2022/09/13 04:20:57;;;;;;;3.10;2.23;;;;;;;13.67;100.00;96317.38;4905889;29;20238;-55
2022/09/13 04:23:24;;;;;;;4.43;2.10;;;;;;;13.65;100.00;96314.03;4906633;29;20203;-55
2022/09/13 04:25:52;;;;;;;2.47;2.27;;;;;;;13.63;100.00;96321.38;4905617;29;20223;-55
2022/09/13 04:28:19;;;;;;;3.37;2.77;;;;;;;13.62;100.00;96319.69;4905319;29;20292;-55
2022/09/13 04:30:46;;;;;;;3.00;2.00;;;;;;;13.64;100.00;96325.66;4905689;29;20250;-55
2022/09/13 04:33:13;;;;;;;2.43;2.20;;;;;;;13.66;100.00;96328.16;4905858;29;20598;-55
2022/09/13 04:35:40;;;;;;;4.17;2.10;;;;;;;13.66;100.00;96318.38;4905750;29;20777;-56
2022/09/13 04:38:07;;;;;;;3.87;2.20;;;;;;;13.66;100.00;96310.38;4905869;29;20295;-55
2022/09/13 04:40:34;;;;;;;2.70;2.50;;;;;;;13.60;100.00;96311.06;4905536;29;20228;-55
2022/09/13 04:43:02;;;;;;;2.37;2.17;;;;;;;13.59;100.00;96301.44;4905748;29;20625;-55
2022/09/13 04:45:29;;;;;;;3.30;2.23;;;;;;;13.58;100.00;96313.06;4905088;29;20235;-54
2022/09/13 04:47:56;;;;;;;1.90;1.80;;;;;;;13.55;100.00;96308.09;4905864;29;20323;-55
2022/09/13 04:50:24;;;;;;;4.30;2.20;;;;;;;13.55;100.00;96315.22;4905309;29;20222;-55
2022/09/13 04:52:51;;;;;;;3.97;2.37;;;;;;;13.57;100.00;96322.00;4905426;29;20227;-55
2022/09/13 04:55:18;;;;;;;4.37;2.30;;;;;;;13.56;100.00;96315.06;4905532;29;20200;-55
2022/09/13 04:57:44;;;;;;;2.43;2.23;;;;;;;13.59;100.00;96319.22;4905883;29;20211;-55
2022/09/13 05:00:13;;;;;;;5.33;1.80;;;;;;;13.58;100.00;96328.16;4905217;29;20270;-55
2022/09/13 05:02:39;;;;;;;2.93;1.90;;;;;;;13.59;100.00;96330.66;4905684;29;20207;-55
2022/09/13 05:05:07;;;;;;;2.50;1.93;;;;;;;13.57;100.00;96330.00;4905536;29;20244;-54
2022/09/13 05:07:34;;;;;;;2.73;2.13;;;;;;;13.57;100.00;96337.16;4909493;29;20208;-55
2022/09/13 05:10:00;;;;;;;2.20;1.80;;;;;;;13.60;100.00;96342.13;4909162;29;20196;-55
2022/09/13 05:12:27;;;;;;;3.00;2.13;;;;;;;13.61;100.00;96339.28;4908638;29;20629;-55
2022/09/13 05:14:54;;;;;;;2.47;1.63;;;;;;;13.58;100.00;96342.28;4908895;29;20220;-54
2022/09/13 05:17:22;;;;;;;1.83;1.73;;;;;;;13.62;100.00;96351.59;4909244;29;20216;-55
2022/09/13 05:19:48;;;;;;;4.03;1.80;;;;;;;13.65;100.00;96345.94;4909244;29;20303;-55
2022/09/13 05:22:15;;;;;;;2.50;1.90;;;;;;;13.73;100.00;96337.94;4909381;29;20223;-55
2022/09/13 05:24:42;;;;;;;6.57;2.10;;;;;;;13.70;100.00;96340.09;4908340;29;20557;-54
2022/09/13 05:27:09;;;;;;;4.63;1.70;;;;;;;13.70;100.00;96334.78;4909256;29;20308;-53
2022/09/13 05:29:35;;;;;;;1.90;1.80;;;;;;;13.70;100.00;96338.28;4908128;29;20303;-55
2022/09/13 05:32:03;;;;;;;1.80;1.70;;;;;;;13.73;100.00;96340.59;4908589;29;20215;-54
2022/09/13 05:34:31;;;;;;;3.43;2.00;;;;;;;13.74;100.00;96339.59;4908627;29;20213;-62
2022/09/13 05:36:57;;;;;;;3.30;2.10;;;;;;;13.77;100.00;96338.44;4908104;29;20211;-54
2022/09/13 05:39:24;;;;;;;7.03;2.13;;;;;;;13.78;100.00;96329.47;4908518;29;20212;-54
2022/09/13 05:41:50;;;;;;;2.13;2.03;;;;;;;13.84;100.00;96332.28;4908385;29;20238;-54
2022/09/13 05:44:17;;;;;;;2.83;2.50;;;;;;;13.86;100.00;96324.09;4908450;29;20322;-54
2022/09/13 05:46:46;;;;;;;2.43;2.23;;;;;;;13.90;100.00;96322.78;4907567;29;20707;-55
2022/09/13 05:49:13;;;;;;;3.43;2.47;;;;;;;13.96;100.00;96327.38;4908286;29;20211;-55
2022/09/13 05:51:41;;;;;;;2.27;2.10;;;;;;;14.05;100.00;96326.38;4907736;29;20237;-55
2022/09/13 05:54:10;;;;;;;2.87;2.30;;;;;;;14.16;100.00;96326.00;4908947;29;20212;-55
2022/09/13 05:56:37;;;;;;;2.50;2.30;;;;;;;14.43;100.00;96319.41;4908302;29;20296;-54
2022/09/13 05:59:03;;;;;;;3.53;2.10;;;;;;;14.65;100.00;96325.78;4908558;29;20207;-54
2022/09/13 06:01:30;;;;;;;2.50;2.30;;;;;;;14.90;100.00;96330.78;4908088;29;20330;-53
2022/09/13 06:03:58;;;;;;;2.23;2.00;;;;;;;15.03;100.00;96332.00;4908222;29;20299;-53
2022/09/13 06:06:25;;;;;;;2.93;2.10;;;;;;;15.12;100.00;96321.13;4915236;29;20256;-53
2022/09/13 06:08:53;;;;;;;2.60;2.20;;;;;;;15.29;100.00;96316.47;4910598;29;20288;-52
2022/09/13 06:11:20;;;;;;;2.42;2.28;;;;;;;15.33;100.00;96315.13;4913260;29;20236;-53
2022/09/13 06:13:47;;;;;;;2.80;2.45;;;;;;;15.45;100.00;96311.00;4913152;29;20950;-53
2022/09/13 06:16:15;;;;;;;2.67;2.47;;;;;;;15.68;100.00;96301.13;4909134;29;20208;-53
2022/09/13 06:18:42;;;;;;;4.93;3.10;;;;;;;16.25;100.00;96303.13;4909492;29;20625;-52
2022/09/13 06:21:10;;;;;;;3.33;3.03;;;;;;;16.63;100.00;96307.31;4908613;29;20220;-53
2022/09/13 06:23:39;;;;;;;2.90;2.67;;;;;;;16.97;100.00;96309.31;4909096;29;20205;-52
2022/09/13 06:26:09;;;;;;;3.95;3.38;;;;;;;17.50;100.00;96309.78;4909381;29;20208;-53
2022/09/13 06:28:37;;;;;;;4.30;3.20;;;;;;;18.29;99.58;96303.91;4908154;29;20203;-53
2022/09/13 06:31:05;;;;;;;6.00;3.33;;;;;;;19.42;93.09;96299.69;4907412;29;20200;-54
2022/09/13 06:33:32;;;;;;;4.40;3.20;;;;;;;20.35;84.33;96292.16;4908375;29;20264;-54
2022/09/13 06:36:04;;;;;;;3.40;3.10;;;;;;;21.07;79.13;96292.81;4908561;29;20201;-55
2022/09/13 06:38:31;;;;;;;4.00;3.70;;;;;;;21.39;75.94;96302.56;4908282;29;20255;-56
2022/09/13 06:41:02;;;;;;;4.18;3.30;;;;;;;21.75;74.52;96291.06;4906599;29;20310;-54
2022/09/13 06:43:31;;;;;;;4.68;3.40;;;;;;;21.91;73.05;96287.00;4906883;29;20564;-52
2022/09/13 06:46:01;;;;;;;6.78;3.00;;;;;;;21.95;73.65;96285.53;4906855;29;20705;-56
2022/09/13 06:48:31;;;;;;;2.88;2.60;;;;;;;22.06;74.00;96290.19;4907539;29;20609;-55
2022/09/13 06:50:58;;;;;;;4.60;2.72;;;;;;;22.37;70.66;96287.34;4907058;29;20204;-55
2022/09/13 06:53:26;;;;;;;5.70;2.90;;;;;;;22.47;71.81;96287.63;4907332;29;20209;-55
2022/09/13 06:56:00;;;;;;;3.72;2.58;;;;;;;22.85;70.29;96289.25;4907172;29;20547;-57
2022/09/13 06:58:28;;;;;;;4.93;2.80;;;;;;;22.33;72.54;96291.53;4907329;29;20889;-56
2022/09/13 07:01:05;;;;;;;4.20;2.63;;;;;;;22.35;72.92;96283.22;4906610;29;20237;-55
2022/09/13 07:03:32;;;;;;;7.07;2.70;;;;;;;22.14;72.78;96279.13;4906787;29;20554;-55
2022/09/13 07:05:58;;;;;;;4.43;2.53;;;;;;;22.25;72.77;96268.41;4907446;29;20290;-56
2022/09/13 07:08:25;;;;;;;3.38;2.63;;;;;;;22.13;73.58;96272.06;4906725;29;20208;-55
2022/09/13 07:10:52;;;;;;;5.28;2.63;;;;;;;21.90;74.50;96263.78;4906499;29;20721;-56
2022/09/13 07:13:19;;;;;;;5.47;2.60;;;;;;;21.66;72.56;96260.09;4907333;29;20213;-55
2022/09/13 07:15:46;;;;;;;2.90;2.60;;;;;;;21.55;74.04;96261.63;4907185;29;20213;-56
2022/09/13 07:18:14;;;;;;;5.57;2.50;;;;;;;21.16;75.17;96256.56;4906274;29;20239;-55
2022/09/13 07:20:40;;;;;;;2.78;2.05;;;;;;;21.10;77.25;96254.75;4906429;29;20216;-55
2022/09/13 07:23:07;;;;;;;3.92;1.85;;;;;;;20.94;79.17;96253.38;4906233;29;20310;-56
2022/09/13 07:25:34;;;;;;;2.55;1.80;;;;;;;20.83;77.14;96257.59;4906859;29;20286;-55
2022/09/13 07:28:00;;;;;;;1.63;1.52;;;;;;;20.64;79.02;96255.03;4906946;29;20660;-54
2022/09/13 07:30:27;;;;;;;2.40;1.92;;;;;;;20.62;77.58;96251.72;4907116;29;20207;-56
2022/09/13 07:32:54;;;;;;;2.38;1.42;;;;;;;20.60;79.82;96246.56;4906891;29;20219;-55
2022/09/13 07:35:22;;;;;;;2.15;1.23;;;;;;;20.60;79.38;96243.88;4906908;29;20556;-56
2022/09/13 07:37:48;;;;;;;2.30;1.40;;;;;;;20.63;80.66;96248.81;4906968;29;20308;-56
2022/09/13 07:40:15;;;;;;;1.70;1.45;;;;;;;20.61;79.92;96258.97;4906651;29;20299;-57
2022/09/13 07:42:42;;;;;;;1.70;1.50;;;;;;;20.59;80.73;96258.34;4906745;29;20231;-57
2022/09/13 07:45:11;;;;;;;3.00;1.30;;;;;;;20.65;81.00;96264.75;4907687;29;20211;-55
2022/09/13 07:47:38;;;;;;;1.65;1.42;;;;;;;20.58;78.78;96259.38;4909513;29;20232;-54
2022/09/13 07:50:05;;;;;;;2.45;1.35;;;;;;;20.51;79.32;96250.53;4906827;29;20300;-55
2022/09/13 07:52:36;;;;;;;6.70;1.45;;;;;;;20.48;80.97;96266.25;4907145;29;20204;-56
2022/09/13 07:55:05;;;;;;;4.55;1.70;;;;;;;20.44;83.42;96265.84;4905771;29;20641;-55
2022/09/13 07:57:31;;;;;;;1.65;1.35;;;;;;;20.35;81.79;96261.78;4906254;29;20234;-55
2022/09/13 07:59:58;;;;;;;2.53;1.30;;;;;;;20.39;82.24;96263.00;4906821;29;20212;-55
2022/09/13 08:02:24;;;;;;;3.25;1.30;;;;;;;20.46;82.15;96263.78;4906178;29;20327;-54
2022/09/13 08:04:51;;;;;;;3.03;1.50;;;;;;;20.42;80.66;96254.50;4906977;29;20334;-57
2022/09/13 08:07:18;;;;;;;5.22;1.70;;;;;;;20.42;80.00;96251.81;4907111;29;20326;-56
2022/09/13 08:09:46;;;;;;;4.40;1.27;;;;;;;20.50;80.91;96256.13;4905847;29;20290;-55
2022/09/13 08:12:13;;;;;;;1.45;1.30;;;;;;;20.58;81.57;96251.31;4906644;29;20603;-57
2022/09/13 08:14:39;;;;;;;1.40;1.20;;;;;;;20.51;80.68;96247.84;4906575;29;20314;-57
2022/09/13 08:17:06;;;;;;;2.08;1.20;;;;;;;20.62;80.33;96257.09;4905596;29;20292;-55
2022/09/13 08:19:33;;;;;;;2.35;1.38;;;;;;;20.70;80.67;96255.00;4906447;29;20208;-55
2022/09/13 08:21:59;;;;;;;1.70;1.60;;;;;;;20.77;80.66;96252.25;4906784;29;20238;-56
2022/09/13 08:24:27;;;;;;;2.10;1.30;;;;;;;20.83;80.51;96254.09;4906959;29;20204;-56
2022/09/13 08:26:55;;;;;;;2.30;1.23;;;;;;;20.93;80.14;96248.25;4908600;29;20205;-55
2022/09/13 08:29:24;;;;;;;3.78;1.77;;;;;;;21.00;77.48;96251.72;4910178;29;20239;-56
2022/09/13 08:31:50;;;;;;;4.97;1.75;;;;;;;21.20;77.37;96249.72;4909105;29;20229;-55
2022/09/13 08:34:17;;;;;;;1.58;1.40;;;;;;;21.43;76.17;96251.81;4908421;29;20201;-57
2022/09/13 08:36:43;;;;;;;2.85;1.27;;;;;;;21.57;76.61;96256.88;4907054;29;20228;-56
2022/09/13 08:39:12;;;;;;;4.20;1.50;;;;;;;21.69;75.43;96255.09;4906646;29;20204;-54
2022/09/13 08:42:07;;;;;;;1.90;1.40;;;;;;;21.95;74.44;96258.59;4911673;29;20288;-55
2022/09/13 08:44:35;;;;;;;3.33;1.30;;;;;;;22.18;73.69;96253.34;4909192;29;20343;-56
2022/09/13 08:47:19;;;;;;;1.75;1.33;;;;;;;22.33;73.00;96245.72;4909710;29;20223;-56
2022/09/13 08:49:49;;;;;;;5.55;1.52;;;;;;;22.51;73.80;96237.63;4909944;29;20267;-56
2022/09/13 08:52:24;;;;;;;3.50;1.45;;;;;;;22.70;73.67;96243.84;4909016;29;20210;-55
2022/09/13 08:54:52;;;;;;;1.48;1.38;;;;;;;22.80;71.92;96244.94;4909675;29;20196;-56
2022/09/13 08:57:26;;;;;;;3.67;1.67;;;;;;;22.89;69.42;96244.59;4908905;29;20577;-55
2022/09/13 08:59:58;;;;;;;3.22;1.33;;;;;;;23.01;68.10;96237.38;4909320;29;20299;-56
2022/09/13 09:02:53;;;;;;;2.05;1.23;;;;;;;23.14;68.66;96243.38;4909808;29;20216;-55
2022/09/13 09:05:21;;;;;;;3.85;1.17;;;;;;;23.41;69.12;96240.25;4901513;29;20668;-56
2022/09/13 09:07:51;;;;;;;1.50;1.38;;;;;;;23.71;70.92;96236.44;4909720;29;20448;-57
2022/09/13 09:10:20;;;;;;;4.20;1.20;;;;;;;23.99;69.27;96240.28;4908503;29;20207;-55
2022/09/13 09:12:52;;;;;;;3.80;1.30;;;;;;;24.18;67.46;96239.13;4908945;29;20689;-55
2022/09/13 09:15:22;;;;;;;2.97;1.58;;;;;;;24.35;65.75;96229.22;4909824;29;20336;-56
2022/09/13 09:17:54;;;;;;;4.80;1.70;;;;;;;24.56;66.07;96231.25;4909016;29;20212;-57
2022/09/13 09:20:27;;;;;;;3.22;1.23;;;;;;;24.83;64.40;96225.28;4908683;29;20216;-55
2022/09/13 09:22:55;;;;;;;2.25;1.27;;;;;;;24.94;62.28;96221.75;4908750;29;20216;-57
2022/09/13 09:25:23;;;;;;;2.72;1.40;;;;;;;24.90;60.07;96220.56;4909088;29;20346;-55
2022/09/13 09:27:52;;;;;;;3.25;2.35;;;;;;;25.01;59.22;96223.19;4908984;29;20287;-56
2022/09/13 09:30:19;;;;;;;2.53;2.33;;;;;;;24.62;59.16;96227.59;4908557;29;20200;-56
2022/09/13 09:33:08;;;;;;;3.67;1.38;;;;;;;25.08;60.64;96217.66;4908697;29;20243;-57
2022/09/13 09:35:45;;;;;;;2.13;1.17;;;;;;;25.33;59.30;96220.78;4908813;29;20214;-56
2022/09/13 09:38:23;;;;;;;2.78;1.35;;;;;;;25.29;57.65;96224.22;4908174;29;20307;-54
2022/09/13 09:40:50;;;;;;;1.15;0.98;;;;;;;25.38;60.22;96218.16;4908581;29;20645;-56
2022/09/13 09:43:24;;;;;;;2.97;1.33;;;;;;;25.62;60.07;96219.66;4908076;29;20267;-56
2022/09/13 09:45:52;;;;;;;2.55;1.30;;;;;;;25.74;57.80;96220.41;4908461;29;20204;-56
2022/09/13 09:48:22;;;;;;;3.90;1.88;;;;;;;25.88;57.29;96218.16;4908811;29;20216;-56
2022/09/13 09:50:51;;;;;;;3.15;1.60;;;;;;;25.99;59.76;96216.41;4908464;29;20538;-58
2022/09/13 09:53:26;;;;;;;7.07;2.13;;;;;;;26.01;57.80;96217.78;4908714;29;20614;-57
2022/09/13 09:55:59;;;;;;;3.53;1.75;;;;;;;26.17;57.67;96216.09;4908395;29;20216;-57
2022/09/13 09:58:42;;;;;;;2.97;1.85;;;;;;;26.11;54.54;96211.69;4908269;29;20637;-56
2022/09/13 10:01:17;;;;;;;2.25;1.70;;;;;;;26.55;57.92;96212.53;4905546;29;20531;-56
2022/09/13 10:03:50;;;;;;;3.63;1.65;;;;;;;26.79;55.49;96196.78;4908078;29;20223;-55
2022/09/13 10:06:19;;;;;;;2.95;1.75;;;;;;;26.80;55.11;96193.00;4908062;29;20290;-56
2022/09/13 10:08:53;;;;;;;1.75;1.42;;;;;;;27.03;55.38;96196.25;4908014;29;20275;-55
2022/09/13 10:11:21;;;;;;;3.80;1.70;;;;;;;27.17;54.04;96183.09;4909003;29;20199;-57
2022/09/13 10:13:58;;;;;;;3.05;1.42;;;;;;;27.25;53.03;96185.31;4908528;29;20586;-57
2022/09/13 10:16:27;;;;;;;5.10;1.70;;;;;;;27.12;51.22;96192.00;4908376;29;20204;-55
2022/09/13 10:18:54;;;;;;;3.83;1.98;;;;;;;27.40;53.34;96190.06;4907417;29;20260;-56
2022/09/13 10:21:23;;;;;;;5.00;1.80;;;;;;;27.63;53.80;96182.38;4907950;29;20204;-57
2022/09/13 10:23:50;;;;;;;4.28;1.80;;;;;;;27.67;52.23;96180.78;4907554;29;20677;-55
2022/09/13 10:26:18;;;;;;;2.05;1.52;;;;;;;27.64;50.02;96177.75;4907529;29;20246;-55
2022/09/13 10:28:47;;;;;;;3.67;1.73;;;;;;;27.88;51.34;96175.47;4907689;29;20295;-56
2022/09/13 10:31:16;;;;;;;3.05;1.65;;;;;;;27.98;50.83;96167.38;4907898;29;20213;-56
2022/09/13 10:33:52;;;;;;;3.50;1.50;;;;;;;28.17;51.22;96174.00;4907760;29;20196;-56
2022/09/13 10:36:22;;;;;;;3.97;1.65;;;;;;;28.41;50.40;96172.47;4906809;29;20616;-54
2022/09/13 10:38:56;;;;;;;2.38;1.27;;;;;;;28.49;49.12;96169.25;4907419;29;20205;-56
2022/09/13 10:41:24;;;;;;;2.55;1.45;;;;;;;28.53;51.06;96173.06;4907462;29;20916;-57
2022/09/13 10:43:57;;;;;;;3.50;1.65;;;;;;;28.40;51.94;96172.75;4908388;29;20320;-57
2022/09/13 10:46:26;;;;;;;1.40;1.27;;;;;;;28.47;50.56;96171.44;4908593;29;20200;-56
2022/09/13 10:48:54;;;;;;;3.58;1.30;;;;;;;28.60;49.78;96160.03;4909439;29;20315;-55
2022/09/13 10:51:36;;;;;;;2.70;1.30;;;;;;;28.71;50.88;96158.19;4907875;29;20212;-56
2022/09/13 10:54:17;;;;;;;1.52;1.40;;;;;;;28.62;48.07;96152.44;4907118;29;20644;-55
2022/09/13 10:56:44;;;;;;;2.38;1.30;;;;;;;28.69;49.32;96151.38;4906731;29;20215;-56
2022/09/13 10:59:16;;;;;;;1.30;1.20;;;;;;;28.75;47.63;96144.84;4907103;29;20212;-56
2022/09/13 11:01:55;;;;;;;3.38;1.58;;;;;;;28.84;48.36;96138.59;4907344;29;20209;-55
2022/09/13 11:04:47;;;;;;;2.78;1.33;;;;;;;28.76;51.09;96131.00;4906675;29;20235;-56
2022/09/13 11:07:33;;;;;;;4.57;1.83;;;;;;;28.60;49.45;96132.81;4907043;29;20212;-57
2022/09/13 11:10:05;;;;;;;1.67;1.48;;;;;;;28.47;50.84;96121.66;4906931;29;20307;-56
2022/09/13 11:12:39;;;;;;;2.75;1.67;;;;;;;28.36;49.59;96126.25;4907090;29;20580;-55
2022/09/13 11:15:17;;;;;;;2.83;1.63;;;;;;;28.19;48.55;96122.94;4906908;29;20201;-57
2022/09/13 11:18:16;;;;;;;1.25;1.20;;;;;;;28.33;48.75;96113.19;4906654;29;20279;-56
2022/09/13 11:20:50;;;;;;;1.30;1.20;;;;;;;28.43;49.33;96120.53;4900385;29;20211;-56
2022/09/13 11:23:41;;;;;;;2.78;1.40;;;;;;;28.42;51.09;96114.28;4907131;29;20226;-56
2022/09/13 11:26:21;;;;;;;1.25;1.10;;;;;;;28.27;48.05;96099.84;4906540;29;20299;-56
2022/09/13 11:29:01;;;;;;;3.95;1.40;;;;;;;28.47;50.13;96108.03;4906620;29;20304;-56
2022/09/13 11:31:42;;;;;;;2.88;1.10;;;;;;;28.47;49.75;96100.69;4906745;29;20234;-56
2022/09/13 11:34:20;;;;;;;3.97;1.33;;;;;;;28.44;48.35;96084.94;4906183;29;20546;-56
2022/09/13 11:37:05;;;;;;;2.30;1.27;;;;;;;28.18;46.53;96091.38;4906204;29;20655;-57
2022/09/13 11:39:35;;;;;;;1.77;1.27;;;;;;;28.32;47.83;96088.97;4906425;29;20697;-56
2022/09/13 11:42:09;;;;;;;3.47;1.33;;;;;;;28.32;47.49;96084.34;4906999;29;20208;-55
2022/09/13 11:44:58;;;;;;;3.03;1.13;;;;;;;28.42;50.78;96081.63;4905842;29;20318;-58